createdAt,value
2018-12-26T00:01:52.809Z,90.20
2018-12-26T00:04:22.536Z,90.20
2018-12-26T00:06:51.404Z,90.20
2018-12-26T00:09:20.372Z,90.30
2018-12-26T00:11:49.236Z,90.30
2018-12-26T00:14:18.076Z,90.30
2018-12-26T00:16:46.924Z,90.30
2018-12-26T00:19:15.761Z,90.30
2018-12-26T00:21:44.680Z,90.20
2018-12-26T00:24:13.787Z,90.20
2018-12-26T00:26:42.704Z,90.10
2018-12-26T00:29:11.543Z,90.20
2018-12-26T00:31:40.376Z,90.10
2018-12-26T00:34:09.273Z,90.00
2018-12-26T00:36:38.118Z,90.00
2018-12-26T00:39:07.158Z,90.00
2018-12-26T00:41:36.024Z,90.00
2018-12-26T00:44:04.856Z,90.00
2018-12-26T00:46:33.716Z,89.90
2018-12-26T00:49:02.581Z,89.70
2018-12-26T00:51:31.813Z,89.90
2018-12-26T00:54:00.873Z,89.70
2018-12-26T00:56:29.801Z,89.70
2018-12-26T00:58:58.628Z,89.80
2018-12-26T01:01:27.463Z,90.00
2018-12-26T01:03:56.316Z,90.00
2018-12-26T01:06:55.688Z,90.00
2018-12-26T01:09:24.841Z,90.00
2018-12-26T01:11:53.652Z,89.90
2018-12-26T01:14:22.532Z,90.00
2018-12-26T01:16:51.381Z,89.80
2018-12-26T01:19:20.214Z,89.70
2018-12-26T01:21:49.050Z,89.50
2018-12-26T01:24:18.156Z,88.90
2018-12-26T01:26:46.990Z,88.40
2018-12-26T01:29:15.825Z,88.90
2018-12-26T01:31:44.692Z,89.20
2018-12-26T01:34:13.613Z,89.70
2018-12-26T01:36:42.706Z,89.80
2018-12-26T01:39:11.642Z,89.70
2018-12-26T01:41:40.505Z,89.80
2018-12-26T01:44:09.629Z,90.20
2018-12-26T01:46:38.484Z,89.20
2018-12-26T01:49:07.355Z,89.00
2018-12-26T01:51:36.193Z,88.80
2018-12-26T01:54:05.030Z,89.50
2018-12-26T01:56:48.329Z,89.30
2018-12-26T01:59:17.311Z,89.80
2018-12-26T02:01:46.160Z,89.70
2018-12-26T02:04:15.025Z,89.60
2018-12-26T02:06:43.879Z,89.20
2018-12-26T02:09:13.792Z,89.30
2018-12-26T02:11:42.656Z,89.80
2018-12-26T02:14:11.517Z,90.00
2018-12-26T02:16:40.365Z,89.10
2018-12-26T02:19:09.218Z,89.30
2018-12-26T02:21:38.086Z,89.60
2018-12-26T02:24:07.180Z,89.10
2018-12-26T02:26:36.486Z,89.10
2018-12-26T02:29:05.660Z,89.20
2018-12-26T02:31:34.511Z,88.90
2018-12-26T02:34:03.350Z,89.30
2018-12-26T02:36:32.209Z,88.90
2018-12-26T02:39:01.333Z,89.20
2018-12-26T02:41:31.609Z,89.50
2018-12-26T02:44:00.467Z,88.70
2018-12-26T02:46:29.308Z,88.90
2018-12-26T02:48:58.173Z,89.10
2018-12-26T02:51:27.113Z,89.50
2018-12-26T02:53:56.009Z,89.30
2018-12-26T02:56:24.873Z,89.10
2018-12-26T02:58:53.740Z,89.30
2018-12-26T03:01:22.593Z,89.20
2018-12-26T03:03:51.633Z,88.70
2018-12-26T03:06:20.482Z,88.80
2018-12-26T03:08:49.380Z,88.80
2018-12-26T03:11:18.245Z,88.80
2018-12-26T03:13:47.151Z,88.80
2018-12-26T03:16:16.017Z,88.50
2018-12-26T03:18:44.937Z,88.70
2018-12-26T03:21:14.340Z,88.80
2018-12-26T03:23:43.182Z,89.00
2018-12-26T03:26:12.305Z,88.80
2018-12-26T03:28:41.240Z,88.90
2018-12-26T03:31:10.109Z,89.10
2018-12-26T03:33:39.162Z,89.30
2018-12-26T03:36:08.628Z,89.20
2018-12-26T03:38:37.467Z,89.20
2018-12-26T03:41:06.361Z,89.10
2018-12-26T03:43:35.210Z,89.40
2018-12-26T03:46:04.041Z,89.40
2018-12-26T03:48:32.913Z,89.30
2018-12-26T03:51:01.810Z,89.10
2018-12-26T03:53:30.660Z,89.10
2018-12-26T03:55:59.514Z,89.00
2018-12-26T03:58:28.506Z,88.70
2018-12-26T04:00:57.401Z,88.40
2018-12-26T04:03:26.260Z,88.90
2018-12-26T04:05:55.112Z,88.90
2018-12-26T04:08:23.954Z,89.10
2018-12-26T04:10:52.792Z,89.20
2018-12-26T04:13:21.637Z,89.20
2018-12-26T04:15:50.519Z,89.20
2018-12-26T04:18:19.389Z,89.10
2018-12-26T04:20:48.338Z,89.00
2018-12-26T04:23:17.204Z,89.40
2018-12-26T04:25:47.273Z,89.70
2018-12-26T04:28:16.233Z,89.70
2018-12-26T04:30:45.088Z,89.70
2018-12-26T04:33:13.940Z,89.50
2018-12-26T04:35:42.794Z,89.40
2018-12-26T04:38:11.621Z,89.70
2018-12-26T04:40:40.546Z,89.80
2018-12-26T04:43:09.451Z,89.50
2018-12-26T04:45:38.330Z,89.60
2018-12-26T04:48:07.476Z,89.10
2018-12-26T04:50:36.305Z,89.20
2018-12-26T04:53:05.149Z,89.50
2018-12-26T04:55:33.984Z,89.60
2018-12-26T04:58:02.845Z,89.40
2018-12-26T05:00:31.875Z,89.70
2018-12-26T05:03:00.733Z,89.40
2018-12-26T05:05:29.969Z,89.50
2018-12-26T05:07:58.868Z,89.70
2018-12-26T05:10:28.025Z,89.40
2018-12-26T05:12:56.882Z,89.40
2018-12-26T05:15:26.100Z,89.30
2018-12-26T05:17:54.952Z,89.40
2018-12-26T05:20:23.885Z,89.10
2018-12-26T05:22:52.756Z,89.40
2018-12-26T05:25:21.613Z,88.80
2018-12-26T05:27:50.453Z,88.80
2018-12-26T05:30:19.289Z,88.80
2018-12-26T05:32:48.165Z,89.00
2018-12-26T05:35:17.028Z,89.20
2018-12-26T05:37:45.870Z,88.80
2018-12-26T05:40:14.700Z,88.90
2018-12-26T05:42:43.625Z,88.50
2018-12-26T05:45:12.485Z,88.80
2018-12-26T05:47:41.413Z,88.90
2018-12-26T05:50:10.293Z,89.40
2018-12-26T05:52:39.172Z,89.10
2018-12-26T05:55:08.000Z,89.10
2018-12-26T05:57:42.780Z,88.90
2018-12-26T06:00:07.463Z,88.80
2018-12-26T06:02:36.328Z,88.90
2018-12-26T06:05:05.181Z,89.20
2018-12-26T06:07:34.000Z,89.80
2018-12-26T06:10:02.829Z,89.00
2018-12-26T06:12:31.692Z,89.10
2018-12-26T06:15:00.558Z,89.60
2018-12-26T06:17:29.393Z,89.30
2018-12-26T06:19:58.240Z,89.30
2018-12-26T06:22:27.080Z,89.30
2018-12-26T06:24:55.929Z,89.20
2018-12-26T06:27:24.881Z,89.10
2018-12-26T06:29:54.064Z,89.10
2018-12-26T06:32:24.122Z,89.20
2018-12-26T06:34:53.057Z,88.80
2018-12-26T06:37:21.936Z,88.80
2018-12-26T06:39:50.833Z,88.90
2018-12-26T06:42:19.708Z,89.10
2018-12-26T06:44:48.603Z,89.50
2018-12-26T06:47:17.461Z,88.90
2018-12-26T06:49:46.317Z,88.40
2018-12-26T06:52:15.162Z,88.30
2018-12-26T06:54:44.189Z,88.50
2018-12-26T06:57:13.098Z,88.40
2018-12-26T06:59:41.976Z,88.30
2018-12-26T07:02:10.944Z,88.80
2018-12-26T07:04:43.567Z,88.80
2018-12-26T07:07:14.004Z,88.50
2018-12-26T07:09:42.828Z,88.70
2018-12-26T07:12:11.756Z,88.70
2018-12-26T07:14:40.869Z,88.50
2018-12-26T07:17:09.712Z,88.40
2018-12-26T07:19:38.571Z,88.40
2018-12-26T07:22:07.475Z,88.40
2018-12-26T07:24:36.307Z,88.20
2018-12-26T07:27:05.145Z,88.20
2018-12-26T07:29:34.296Z,88.00
2018-12-26T07:32:03.124Z,88.10
2018-12-26T07:34:31.973Z,88.10
2018-12-26T07:37:00.806Z,88.40
2018-12-26T07:39:29.652Z,88.30
2018-12-26T07:41:58.509Z,88.40
2018-12-26T07:44:27.357Z,88.10
2018-12-26T07:46:56.458Z,88.30
2018-12-26T07:49:25.449Z,88.40
2018-12-26T07:51:54.927Z,88.30
2018-12-26T07:54:23.796Z,88.20
2018-12-26T07:56:52.670Z,88.20
2018-12-26T07:59:21.581Z,88.20
2018-12-26T08:01:50.456Z,88.40
2018-12-26T08:04:19.564Z,88.20
2018-12-26T08:06:49.496Z,87.90
2018-12-26T08:09:18.562Z,88.10
2018-12-26T08:11:47.430Z,88.40
2018-12-26T08:14:16.358Z,88.70
2018-12-26T08:16:45.528Z,88.50
2018-12-26T08:19:14.626Z,88.10
2018-12-26T08:21:43.553Z,87.50
2018-12-26T08:24:12.472Z,88.30
2018-12-26T08:26:41.381Z,88.50
2018-12-26T08:29:10.228Z,88.70
2018-12-26T08:31:39.199Z,88.50
2018-12-26T08:34:08.106Z,88.40
2018-12-26T08:36:36.946Z,88.20
2018-12-26T08:39:06.220Z,87.80
2018-12-26T08:41:35.229Z,88.00
2018-12-26T08:44:04.317Z,88.10
2018-12-26T08:46:33.577Z,87.90
2018-12-26T08:49:02.842Z,87.70
2018-12-26T08:51:31.745Z,87.40
2018-12-26T08:54:00.596Z,87.80
2018-12-26T08:56:34.991Z,87.30
2018-12-26T08:59:03.832Z,86.50
2018-12-26T09:01:32.772Z,86.00
2018-12-26T09:04:01.714Z,86.50
2018-12-26T09:06:30.905Z,86.50
2018-12-26T09:09:00.114Z,87.00
2018-12-26T09:11:29.061Z,87.00
2018-12-26T09:13:57.930Z,86.20
2018-12-26T09:16:26.952Z,85.60
2018-12-26T09:18:55.835Z,85.50
2018-12-26T09:21:24.805Z,86.60
2018-12-26T09:23:53.920Z,85.30
2018-12-26T09:26:22.867Z,84.90
2018-12-26T09:28:52.013Z,84.80
2018-12-26T09:31:20.906Z,84.70
2018-12-26T09:33:49.742Z,85.20
2018-12-26T09:36:18.717Z,84.90
2018-12-26T09:38:47.602Z,84.90
2018-12-26T09:41:16.548Z,84.90
2018-12-26T09:43:45.380Z,84.40
2018-12-26T09:46:14.277Z,84.40
2018-12-26T09:48:43.249Z,84.20
2018-12-26T09:51:12.089Z,84.70
2018-12-26T09:53:40.965Z,83.70
2018-12-26T09:56:09.820Z,84.30
2018-12-26T09:58:38.652Z,84.30
2018-12-26T10:01:07.643Z,83.80
2018-12-26T10:03:36.496Z,82.90
2018-12-26T10:06:05.395Z,83.10
2018-12-26T10:08:34.284Z,83.40
2018-12-26T10:11:03.208Z,82.30
2018-12-26T10:13:32.098Z,81.30
2018-12-26T10:16:01.157Z,81.60
2018-12-26T10:18:30.025Z,81.70
2018-12-26T10:20:59.252Z,82.40
2018-12-26T10:23:28.213Z,82.00
2018-12-26T10:25:57.076Z,80.80
2018-12-26T10:28:26.272Z,81.30
2018-12-26T10:30:55.205Z,81.40
2018-12-26T10:33:24.057Z,81.10
2018-12-26T10:35:53.345Z,80.60
2018-12-26T10:38:22.220Z,80.60
2018-12-26T10:40:52.252Z,81.00
2018-12-26T10:43:21.114Z,80.60
2018-12-26T10:45:50.050Z,80.90
2018-12-26T10:48:19.009Z,80.50
2018-12-26T10:50:48.241Z,80.70
2018-12-26T10:53:17.161Z,80.70
2018-12-26T10:55:46.028Z,80.00
2018-12-26T10:58:15.106Z,79.90
2018-12-26T11:00:44.058Z,78.90
2018-12-26T11:03:14.025Z,79.00
2018-12-26T11:05:42.871Z,79.90
2018-12-26T11:08:11.794Z,80.50
2018-12-26T11:10:40.666Z,80.00
2018-12-26T11:13:09.511Z,80.80
2018-12-26T11:15:38.364Z,78.90
2018-12-26T11:18:07.307Z,79.00
2018-12-26T11:20:36.161Z,79.50
2018-12-26T11:23:05.189Z,79.40
2018-12-26T11:25:34.263Z,79.00
2018-12-26T11:28:03.222Z,79.30
2018-12-26T11:30:32.077Z,79.70
2018-12-26T11:33:01.474Z,79.20
2018-12-26T11:35:30.543Z,79.00
2018-12-26T11:37:59.432Z,78.90
2018-12-26T11:40:28.320Z,78.60
2018-12-26T11:42:57.304Z,78.40
2018-12-26T11:45:26.250Z,78.60
2018-12-26T11:47:55.122Z,78.60
2018-12-26T11:50:23.987Z,77.70
2018-12-26T11:52:52.836Z,77.80
2018-12-26T11:55:21.796Z,77.40
2018-12-26T11:57:50.657Z,77.20
2018-12-26T12:00:20.060Z,76.40
2018-12-26T12:02:49.189Z,75.30
2018-12-26T12:05:18.669Z,75.70
2018-12-26T12:07:47.510Z,74.00
2018-12-26T12:10:16.448Z,74.60
2018-12-26T12:12:45.312Z,73.90
2018-12-26T12:15:14.161Z,74.00
2018-12-26T12:17:43.209Z,75.00
2018-12-26T12:20:12.512Z,75.50
2018-12-26T12:22:42.996Z,75.70
2018-12-26T12:25:11.869Z,75.40
2018-12-26T12:27:40.722Z,75.40
2018-12-26T12:30:09.806Z,74.60
2018-12-26T12:32:38.834Z,73.30
2018-12-26T12:35:07.699Z,73.60
2018-12-26T12:37:36.650Z,72.10
2018-12-26T12:40:06.383Z,72.60
2018-12-26T12:42:35.273Z,71.80
2018-12-26T12:45:04.312Z,72.10
2018-12-26T12:47:33.239Z,72.40
2018-12-26T12:50:02.459Z,72.60
2018-12-26T12:52:31.386Z,73.10
2018-12-26T12:55:01.927Z,72.30
2018-12-26T12:57:30.822Z,72.10
2018-12-26T13:00:00.857Z,72.80
2018-12-26T13:02:29.825Z,72.10
2018-12-26T13:05:10.833Z,71.60
2018-12-26T13:08:09.724Z,69.50
2018-12-26T13:10:38.452Z,69.00
2018-12-26T13:13:07.317Z,68.00
2018-12-26T13:15:37.263Z,66.60
2018-12-26T13:18:06.235Z,65.60
2018-12-26T13:20:35.146Z,65.00
2018-12-26T13:23:04.042Z,64.40
2018-12-26T13:25:40.443Z,65.20
2018-12-26T13:28:09.384Z,65.50
2018-12-26T13:30:38.298Z,65.50
2018-12-26T13:33:07.164Z,65.80
2018-12-26T13:35:36.464Z,65.80
2018-12-26T13:38:05.345Z,65.20
2018-12-26T13:40:34.198Z,65.70
2018-12-26T13:43:03.389Z,66.20
2018-12-26T13:45:32.243Z,67.00
2018-12-26T13:48:01.134Z,67.30
2018-12-26T13:50:30.085Z,68.20
2018-12-26T13:56:26.241Z,69.40
2018-12-26T14:02:00.757Z,70.70
2018-12-26T14:11:42.622Z,72.30
2018-12-26T14:14:11.499Z,72.60
2018-12-26T14:16:40.438Z,73.00
2018-12-26T14:19:09.301Z,73.30
2018-12-26T14:22:04.672Z,73.30
2018-12-26T14:27:49.686Z,73.60
2018-12-26T14:36:57.449Z,74.30
2018-12-26T14:39:26.601Z,74.70
2018-12-26T14:41:55.492Z,74.70
2018-12-26T14:44:24.359Z,74.90
2018-12-26T14:46:53.233Z,75.40
2018-12-26T14:49:22.128Z,75.30
2018-12-26T14:51:51.025Z,75.50
2018-12-26T14:54:20.018Z,75.90
2018-12-26T14:56:49.220Z,76.10
2018-12-26T14:59:18.281Z,76.70
2018-12-26T15:01:47.152Z,76.80
2018-12-26T15:04:17.177Z,76.70
2018-12-26T15:06:46.085Z,76.90
2018-12-26T15:09:15.149Z,77.40
2018-12-26T15:11:43.982Z,77.70
2018-12-26T15:14:13.113Z,77.90
2018-12-26T15:16:42.178Z,78.00
2018-12-26T15:19:20.402Z,78.20
2018-12-26T15:21:49.269Z,78.30
2018-12-26T15:24:18.408Z,78.80
2018-12-26T15:26:48.598Z,79.10
2018-12-26T15:29:17.937Z,78.90
2018-12-26T15:31:46.776Z,79.30
2018-12-26T15:34:15.719Z,79.20
2018-12-26T15:36:44.618Z,79.40
2018-12-26T15:39:13.460Z,79.70
2018-12-26T15:41:42.306Z,79.90
2018-12-26T15:44:11.609Z,80.10
2018-12-26T15:46:40.594Z,80.40
2018-12-26T15:49:09.459Z,80.60
2018-12-26T15:51:38.669Z,81.00
2018-12-26T15:54:07.585Z,81.40
2018-12-26T15:56:36.504Z,81.80
2018-12-26T15:59:05.366Z,81.70
2018-12-26T16:01:34.241Z,81.90
2018-12-26T16:04:03.330Z,82.00
2018-12-26T16:06:32.296Z,82.10
2018-12-26T16:09:01.400Z,82.30
2018-12-26T16:11:31.208Z,82.50
2018-12-26T16:14:00.134Z,82.80
2018-12-26T16:16:29.095Z,83.20
2018-12-26T16:18:57.936Z,83.30
2018-12-26T16:21:26.774Z,84.00
2018-12-26T16:23:55.709Z,83.60
2018-12-26T16:26:24.868Z,83.90
2018-12-26T16:28:53.713Z,83.50
2018-12-26T16:31:22.574Z,83.40
2018-12-26T16:33:51.467Z,83.80
2018-12-26T16:36:20.830Z,83.80
2018-12-26T16:38:49.717Z,84.20
2018-12-26T16:41:18.584Z,84.60
2018-12-26T16:43:47.620Z,84.40
2018-12-26T16:46:16.484Z,84.60
2018-12-26T16:48:45.434Z,84.60
2018-12-26T16:51:15.418Z,84.70
2018-12-26T16:53:44.338Z,84.70
2018-12-26T16:56:13.328Z,84.50
2018-12-26T16:58:42.593Z,84.50
2018-12-26T17:01:11.471Z,84.60
2018-12-26T17:03:40.336Z,84.60
2018-12-26T17:06:09.222Z,84.30
2018-12-26T17:08:38.060Z,84.40
2018-12-26T17:11:07.150Z,84.70
2018-12-26T17:13:36.012Z,85.00
2018-12-26T17:16:04.969Z,85.20
2018-12-26T17:18:33.836Z,85.60
2018-12-26T17:21:02.702Z,85.00
2018-12-26T17:23:31.621Z,84.90
2018-12-26T17:26:00.925Z,84.90
2018-12-26T17:28:29.876Z,84.90
2018-12-26T17:31:04.084Z,85.20
2018-12-26T17:33:29.982Z,85.30
2018-12-26T17:35:59.152Z,84.90
2018-12-26T17:38:28.024Z,84.90
2018-12-26T17:40:56.909Z,84.80
2018-12-26T17:43:28.785Z,84.90
2018-12-26T17:45:57.662Z,85.10
2018-12-26T17:48:27.688Z,85.60
2018-12-26T17:50:58.299Z,84.90
2018-12-26T17:53:40.445Z,85.10
2018-12-26T17:56:41.063Z,85.40
2018-12-26T17:59:29.183Z,85.00
2018-12-26T18:02:27.190Z,85.50
2018-12-26T18:04:57.265Z,85.50
2018-12-26T18:07:27.272Z,85.20
2018-12-26T18:09:57.571Z,85.00
2018-12-26T18:12:27.687Z,85.80
2018-12-26T18:14:58.071Z,85.00
2018-12-26T18:17:31.297Z,85.10
2018-12-26T18:20:01.461Z,85.20
2018-12-26T18:22:31.597Z,85.10
2018-12-26T18:25:01.735Z,85.20
2018-12-26T18:27:32.126Z,85.20
2018-12-26T18:30:02.194Z,85.30
2018-12-26T18:32:37.053Z,85.10
2018-12-26T18:35:10.024Z,85.00
2018-12-26T18:37:40.194Z,85.20
2018-12-26T18:40:10.648Z,85.20
2018-12-26T18:42:40.934Z,85.20
2018-12-26T18:45:11.070Z,85.50
2018-12-26T18:47:41.683Z,85.50
2018-12-26T18:50:57.523Z,85.50
2018-12-26T18:53:27.841Z,85.30
2018-12-26T18:55:57.962Z,85.10
2018-12-26T18:58:28.144Z,85.00
2018-12-26T19:00:58.324Z,84.90
2018-12-26T19:03:28.445Z,85.00
2018-12-26T19:05:58.622Z,85.00
2018-12-26T19:08:28.723Z,85.20
2018-12-26T19:10:59.555Z,85.60
2018-12-26T19:13:30.092Z,85.80
2018-12-26T19:16:00.747Z,85.70
2018-12-26T19:18:31.324Z,86.10
2018-12-26T19:21:01.483Z,86.50
2018-12-26T19:23:31.610Z,86.90
2018-12-26T19:26:05.033Z,86.70
2018-12-26T19:28:44.977Z,86.60
2018-12-26T19:31:15.601Z,87.00
2018-12-26T19:33:45.831Z,87.10
2018-12-26T19:36:16.694Z,87.00
2018-12-26T19:38:46.995Z,86.70
2018-12-26T19:41:17.295Z,86.60
2018-12-26T19:43:47.634Z,86.50
2018-12-26T19:46:17.907Z,86.60
2018-12-26T19:48:48.128Z,86.60
2018-12-26T19:51:18.407Z,86.80
2018-12-26T19:53:48.983Z,86.70
2018-12-26T19:56:19.598Z,87.00
2018-12-26T19:58:49.873Z,87.00
2018-12-26T20:01:20.174Z,86.90
2018-12-26T20:03:50.834Z,87.20
2018-12-26T20:06:21.081Z,86.80
2018-12-26T20:08:51.809Z,86.90
2018-12-26T20:11:22.223Z,86.80
2018-12-26T20:13:52.501Z,86.80
2018-12-26T20:16:22.803Z,87.10
2018-12-26T20:18:53.084Z,87.10
2018-12-26T20:21:23.610Z,86.80
2018-12-26T20:23:54.278Z,87.70
2018-12-26T20:26:26.200Z,87.20
2018-12-26T20:28:56.812Z,87.20
2018-12-26T20:31:27.144Z,87.10
2018-12-26T20:33:57.449Z,87.00
2018-12-26T20:36:27.729Z,87.30
2018-12-26T20:38:58.019Z,87.10
2018-12-26T20:41:28.219Z,86.80
2018-12-26T20:43:58.491Z,86.30
2018-12-26T20:46:28.910Z,86.60
2018-12-26T20:48:59.158Z,86.70
2018-12-26T20:51:29.318Z,86.80
2018-12-26T20:53:59.524Z,86.70
2018-12-26T20:56:29.646Z,86.70
2018-12-26T20:58:59.873Z,87.10
2018-12-26T21:01:30.049Z,86.80
2018-12-26T21:04:00.279Z,86.80
2018-12-26T21:06:30.799Z,86.70
2018-12-26T21:09:02.123Z,86.80
2018-12-26T21:11:33.509Z,87.00
2018-12-26T21:14:03.698Z,87.00
2018-12-26T21:16:34.303Z,87.00
2018-12-26T21:19:05.861Z,87.00
2018-12-26T21:22:00.926Z,87.40
2018-12-26T21:24:31.256Z,87.60
2018-12-26T21:27:01.569Z,87.60
2018-12-26T21:29:33.935Z,87.40
2018-12-26T21:32:04.818Z,87.70
2018-12-26T21:34:34.952Z,88.20
2018-12-26T21:37:08.360Z,87.70
2018-12-26T21:43:15.447Z,87.60
2018-12-26T21:46:11.726Z,87.50
2018-12-26T21:48:41.834Z,87.30
2018-12-26T21:51:11.898Z,87.60
2018-12-26T21:53:42.019Z,88.30
2018-12-26T21:56:12.122Z,87.60
2018-12-26T21:58:42.249Z,87.50
2018-12-26T22:01:12.340Z,87.40
2018-12-26T22:03:42.475Z,87.40
2018-12-26T22:06:12.460Z,87.40
2018-12-26T22:08:50.305Z,87.20
2018-12-26T22:11:20.417Z,87.00
2018-12-26T22:13:50.399Z,87.40
2018-12-26T22:16:20.695Z,87.30
2018-12-26T22:18:50.994Z,87.10
2018-12-26T22:21:22.092Z,87.40
2018-12-26T22:23:52.213Z,87.70
2018-12-26T22:26:24.105Z,87.40
2018-12-26T22:28:54.518Z,87.80
2018-12-26T22:31:24.649Z,87.60
2018-12-26T22:33:54.621Z,87.60
2018-12-26T22:36:24.640Z,87.90
2018-12-26T22:38:54.603Z,87.90
2018-12-26T22:41:24.876Z,88.00
2018-12-26T22:43:54.843Z,87.80
2018-12-26T22:46:24.870Z,88.00
2018-12-26T22:48:54.813Z,88.00
2018-12-26T22:51:24.870Z,88.20
2018-12-26T22:53:54.857Z,87.70
2018-12-26T22:56:24.845Z,87.70
2018-12-26T22:58:54.849Z,87.50
2018-12-26T23:01:25.232Z,87.60
2018-12-26T23:03:55.245Z,87.90
2018-12-26T23:06:25.235Z,88.10
2018-12-26T23:08:55.265Z,88.30
2018-12-26T23:11:25.585Z,88.60
2018-12-26T23:13:56.169Z,88.50
2018-12-26T23:16:26.165Z,88.70
2018-12-26T23:18:58.102Z,88.70
2018-12-26T23:21:28.276Z,88.70
2018-12-26T23:23:58.244Z,88.80
2018-12-26T23:26:28.278Z,88.80
2018-12-26T23:28:58.757Z,88.70
2018-12-26T23:31:28.801Z,88.90
2018-12-26T23:33:59.012Z,88.80
2018-12-26T23:36:28.992Z,89.10
2018-12-26T23:38:59.009Z,89.00
2018-12-26T23:41:30.041Z,89.00
2018-12-26T23:44:00.600Z,88.90
2018-12-26T23:46:30.545Z,89.10
2018-12-26T23:49:00.822Z,89.10
2018-12-26T23:51:30.822Z,89.00
2018-12-26T23:54:00.786Z,89.00
2018-12-26T23:56:31.325Z,88.80
2018-12-26T23:59:01.305Z,88.80
